Time;durP1;ratioP1;P1;durP2;ratioP2;P2;SDS_P1;SDS_P2;PMS_P1;PMS_P2;Temp;Humidity;BMP_temperature;BMP_pressure;BME280_temperature;BME280_humidity;BME280_pressure;Samples;Min_cycle;Max_cycle;Signal;HPM_P1;HPM_P2
2023/03/16 00:02:25;;;;;;;10.17;6.00;;;1.30;1.00;;;;;;5078552;28;20436;-66
2023/03/16 00:04:54;;;;;;;11.33;5.67;;;1.40;99.90;;;;;;5078320;28;20511;-66
2023/03/16 00:07:21;;;;;;;10.80;5.80;;;1.40;99.90;;;;;;5078628;28;20469;-67
2023/03/16 00:09:48;;;;;;;8.93;6.30;;;1.40;99.90;;;;;;5077956;28;20548;-66
2023/03/16 00:12:17;;;;;;;7.33;5.60;;;1.40;99.90;;;;;;5077797;28;20866;-66
2023/03/16 00:14:47;;;;;;;7.17;5.20;;;1.40;99.90;;;;;;5078510;28;20810;-66
2023/03/16 00:17:18;;;;;;;8.97;5.73;;;1.40;99.90;;;;;;5078172;28;20840;-67
2023/03/16 00:19:50;;;;;;;10.10;6.70;;;1.50;99.90;;;;;;5077963;28;20515;-67
2023/03/16 00:22:17;;;;;;;9.70;6.70;;;1.50;99.90;;;;;;5077530;28;20485;-66
2023/03/16 00:24:44;;;;;;;8.30;5.57;;;1.50;99.90;;;;;;5068191;28;20465;-66
2023/03/16 00:27:13;;;;;;;9.00;5.70;;;1.50;99.90;;;;;;5076411;28;20469;-66
2023/03/16 00:29:46;;;;;;;13.70;6.27;;;1.50;99.90;;;;;;5077296;28;20686;-66
2023/03/16 00:32:15;;;;;;;10.23;5.80;;;1.40;99.90;;;;;;5075292;28;20472;-66
2023/03/16 00:34:42;;;;;;;12.63;5.37;;;1.50;99.90;;;;;;5075853;28;20503;-66
2023/03/16 00:37:14;;;;;;;8.00;5.27;;;1.50;99.90;;;;;;5076342;28;21002;-66
2023/03/16 00:39:42;;;;;;;11.17;6.07;;;1.60;99.90;;;;;;5075929;28;20534;-66
2023/03/16 00:42:10;;;;;;;9.53;5.97;;;1.60;99.90;;;;;;5075791;28;20811;-66
2023/03/16 00:44:37;;;;;;;9.53;6.40;;;1.70;99.90;;;;;;5075211;28;20462;-66
2023/03/16 00:47:05;;;;;;;9.57;5.33;;;1.60;99.90;;;;;;5077242;28;21021;-66
2023/03/16 00:49:33;;;;;;;6.57;5.60;;;1.70;99.90;;;;;;5076893;28;20496;-66
2023/03/16 00:52:01;;;;;;;8.90;4.83;;;1.70;99.90;;;;;;5076946;28;20559;-66
2023/03/16 00:54:31;;;;;;;7.20;5.50;;;1.70;99.90;;;;;;5075135;28;20465;-66
2023/03/16 00:56:58;;;;;;;10.80;5.90;;;1.70;99.90;;;;;;5075989;28;20560;-66
2023/03/16 00:59:26;;;;;;;8.97;5.90;;;1.60;99.90;;;;;;5075766;28;20461;-66
2023/03/16 01:01:53;;;;;;;7.13;5.17;;;1.60;99.90;;;;;;5076112;28;20899;-66
2023/03/16 01:04:20;;;;;;;8.00;5.70;;;1.60;99.90;;;;;;5076316;28;20472;-66
2023/03/16 01:06:48;;;;;;;6.90;6.20;;;1.40;99.90;;;;;;5076419;28;20468;-66
2023/03/16 01:09:15;;;;;;;7.23;5.77;;;1.50;99.90;;;;;;5077361;28;20577;-67
2023/03/16 01:11:44;;;;;;;8.67;5.60;;;1.50;99.90;;;;;;5077025;28;20841;-66
2023/03/16 01:14:12;;;;;;;7.47;5.00;;;1.60;99.90;;;;;;5077324;28;20463;-66
2023/03/16 01:16:39;;;;;;;9.30;5.27;;;1.60;99.90;;;;;;5075605;28;20457;-66
2023/03/16 01:19:06;;;;;;;9.23;5.03;;;1.60;99.90;;;;;;5075416;28;20481;-65
2023/03/16 01:21:35;;;;;;;10.37;5.67;;;1.60;99.90;;;;;;5075461;28;20904;-66
2023/03/16 01:24:03;;;;;;;8.40;4.90;;;1.70;99.90;;;;;;5075254;28;20474;-65
2023/03/16 01:26:31;;;;;;;11.37;5.97;;;1.70;99.90;;;;;;5075444;28;20465;-66
2023/03/16 01:28:59;;;;;;;6.10;5.50;;;1.70;99.90;;;;;;5075758;28;20503;-65
2023/03/16 01:31:28;;;;;;;7.23;4.97;;;1.80;99.90;;;;;;5076527;28;20481;-66
2023/03/16 01:33:57;;;;;;;6.67;4.70;;;1.80;99.90;;;;;;5076257;28;20470;-66
2023/03/16 01:36:24;;;;;;;6.30;4.50;;;1.80;99.90;;;;;;5076237;28;20472;-66
2023/03/16 01:38:51;;;;;;;5.83;4.87;;;1.90;99.90;;;;;;5077041;28;20473;-66
2023/03/16 01:41:18;;;;;;;11.60;5.63;;;2.00;99.90;;;;;;5077063;28;20471;-66
2023/03/16 01:43:46;;;;;;;6.50;5.20;;;2.00;99.90;;;;;;5076381;28;20480;-66
2023/03/16 01:46:23;;;;;;;11.40;5.17;;;2.00;99.90;;;;;;5076944;28;20457;-66
2023/03/16 01:48:56;;;;;;;7.90;4.77;;;2.10;99.90;;;;;;5076747;28;20472;-66
2023/03/16 01:51:28;;;;;;;7.00;4.50;;;2.00;99.90;;;;;;5077072;28;20490;-66
2023/03/16 01:53:59;;;;;;;7.30;4.73;;;2.10;99.90;;;;;;5077009;28;20473;-67
2023/03/16 01:56:33;;;;;;;9.50;5.03;;;2.10;99.90;;;;;;5076036;28;20476;-67
2023/03/16 01:59:05;;;;;;;8.53;5.10;;;2.10;99.90;;;;;;5080398;28;20736;-66
2023/03/16 02:01:34;;;;;;;15.43;4.77;;;2.20;99.90;;;;;;5061883;28;20458;-67
2023/03/16 02:04:12;;;;;;;10.40;4.93;;;2.10;99.90;;;;;;5060196;28;20466;-66
2023/03/16 02:06:40;;;;;;;7.23;4.57;;;2.10;99.90;;;;;;5065233;28;20465;-66
2023/03/16 02:09:09;;;;;;;7.40;4.60;;;2.20;99.90;;;;;;5081103;28;20472;-66
2023/03/16 02:11:36;;;;;;;8.30;4.60;;;2.20;99.90;;;;;;5080294;28;20499;-66
2023/03/16 02:14:08;;;;;;;9.73;5.60;;;2.20;99.90;;;;;;5080568;28;20472;-67
2023/03/16 02:16:37;;;;;;;7.00;4.50;;;2.20;99.90;;;;;;5079984;28;20461;-66
2023/03/16 02:19:09;;;;;;;7.43;4.33;;;2.20;99.90;;;;;;5080383;28;20901;-66
2023/03/16 02:21:45;;;;;;;6.20;4.33;;;2.20;99.90;;;;;;5080387;28;20889;-66
2023/03/16 02:24:13;;;;;;;6.50;4.30;;;2.30;99.90;;;;;;5080267;28;20464;-66
2023/03/16 02:26:46;;;;;;;5.70;4.67;;;2.30;99.90;;;;;;5079221;28;20462;-66
2023/03/16 02:29:26;;;;;;;9.10;4.37;;;2.30;99.90;;;;;;5080222;28;20465;-65
2023/03/16 02:31:56;;;;;;;7.30;4.10;;;2.30;99.90;;;;;;5080166;28;20492;-65
2023/03/16 02:34:24;;;;;;;7.30;4.50;;;2.30;99.90;;;;;;5080254;28;20437;-66
2023/03/16 02:36:52;;;;;;;5.67;4.20;;;2.30;99.90;;;;;;5079530;28;20771;-66
2023/03/16 02:39:20;;;;;;;5.20;4.17;;;2.30;99.90;;;;;;5080180;28;20468;-66
2023/03/16 02:41:48;;;;;;;7.70;4.63;;;2.30;99.90;;;;;;5079326;28;20461;-65
2023/03/16 02:44:18;;;;;;;11.53;4.70;;;2.30;99.90;;;;;;5078364;28;20476;-66
2023/03/16 02:46:48;;;;;;;5.73;4.13;;;2.40;99.90;;;;;;5079988;28;20765;-66
2023/03/16 02:49:24;;;;;;;6.30;4.67;;;2.40;99.90;;;;;;5080256;28;20897;-66
2023/03/16 02:51:52;;;;;;;5.20;4.10;;;2.30;99.90;;;;;;5079748;28;20538;-66
2023/03/16 02:54:19;;;;;;;5.60;4.03;;;2.30;99.90;;;;;;5078908;28;20465;-65
2023/03/16 02:56:46;;;;;;;6.40;4.20;;;2.30;99.90;;;;;;5079485;28;20465;-65
2023/03/16 02:59:13;;;;;;;6.00;3.80;;;2.30;99.90;;;;;;5079627;28;20468;-66
2023/03/16 03:01:41;;;;;;;11.03;3.93;;;2.40;99.90;;;;;;5079291;28;20457;-65
2023/03/16 03:04:08;;;;;;;5.30;3.90;;;2.40;99.90;;;;;;5079010;28;20461;-65
2023/03/16 03:06:37;;;;;;;5.93;3.43;;;2.40;99.90;;;;;;5079500;28;20472;-65
2023/03/16 03:09:05;;;;;;;6.50;3.77;;;2.40;99.90;;;;;;5078520;28;20762;-66
2023/03/16 03:11:33;;;;;;;6.00;3.73;;;2.50;99.90;;;;;;5079083;28;20501;-65
2023/03/16 03:14:00;;;;;;;9.50;4.20;;;2.50;99.90;;;;;;5079462;28;20465;-66
2023/03/16 03:16:27;;;;;;;6.50;4.30;;;2.50;99.90;;;;;;5079423;28;20465;-65
2023/03/16 03:18:54;;;;;;;7.70;4.30;;;2.50;99.90;;;;;;5078513;28;20464;-66
2023/03/16 03:21:22;;;;;;;8.43;3.77;;;2.50;99.90;;;;;;5079133;28;20457;-66
2023/03/16 03:23:52;;;;;;;7.13;4.67;;;2.50;99.90;;;;;;5079040;28;20461;-66
2023/03/16 03:26:19;;;;;;;7.73;4.53;;;2.50;99.90;;;;;;5079231;28;20890;-66
2023/03/16 03:28:47;;;;;;;5.50;4.00;;;2.50;99.90;;;;;;5079102;28;20530;-65
2023/03/16 03:31:15;;;;;;;6.37;4.30;;;2.40;99.90;;;;;;5078649;28;20489;-66
2023/03/16 03:33:42;;;;;;;6.03;3.63;;;2.50;99.90;;;;;;5079069;28;20461;-65
2023/03/16 03:36:10;;;;;;;5.20;4.00;;;2.50;99.90;;;;;;5079124;28;20476;-66
2023/03/16 03:38:38;;;;;;;4.53;3.67;;;2.50;99.90;;;;;;5079127;28;20466;-65
2023/03/16 03:41:07;;;;;;;7.83;4.10;;;2.50;99.90;;;;;;5078572;28;20465;-66
2023/03/16 03:43:35;;;;;;;4.97;4.20;;;2.50;99.90;;;;;;5078775;28;20435;-65
2023/03/16 03:46:03;;;;;;;5.47;4.00;;;2.60;99.90;;;;;;5078905;28;20493;-65
2023/03/16 03:48:30;;;;;;;4.83;3.43;;;2.60;99.90;;;;;;5079124;28;20461;-66
2023/03/16 03:50:57;;;;;;;4.77;4.20;;;2.60;99.90;;;;;;5077433;28;20485;-66
2023/03/16 03:53:24;;;;;;;7.70;4.50;;;2.60;99.90;;;;;;5078693;28;20453;-67
2023/03/16 03:55:51;;;;;;;5.83;3.80;;;2.50;99.90;;;;;;5078432;28;20488;-67
2023/03/16 03:58:20;;;;;;;9.23;4.10;;;2.60;99.90;;;;;;5078527;28;20468;-66
2023/03/16 04:00:47;;;;;;;6.57;3.67;;;2.60;99.90;;;;;;5077848;28;20469;-65
2023/03/16 04:03:16;;;;;;;6.70;3.93;;;2.70;99.90;;;;;;5078501;28;20886;-65
2023/03/16 04:05:43;;;;;;;6.00;3.60;;;2.70;99.90;;;;;;5078838;28;20847;-65
2023/03/16 04:08:10;;;;;;;8.33;3.90;;;2.60;99.90;;;;;;5078962;28;20791;-65
2023/03/16 04:10:37;;;;;;;4.57;3.70;;;2.60;99.90;;;;;;5077899;28;20493;-65
2023/03/16 04:13:04;;;;;;;8.33;4.07;;;2.60;99.90;;;;;;5077628;28;20547;-65
2023/03/16 04:15:34;;;;;;;5.33;3.97;;;2.70;99.90;;;;;;5078122;28;20440;-66
2023/03/16 04:18:02;;;;;;;4.87;3.37;;;2.60;99.90;;;;;;5078431;28;20947;-66
2023/03/16 04:20:29;;;;;;;4.03;2.90;;;2.70;99.90;;;;;;5077402;28;20469;-66
2023/03/16 04:22:58;;;;;;;5.07;3.90;;;2.70;99.90;;;;;;5076824;28;20461;-66
2023/03/16 04:25:26;;;;;;;8.50;3.70;;;2.70;99.90;;;;;;5078022;28;20465;-66
2023/03/16 04:27:56;;;;;;;6.93;4.60;;;2.70;99.90;;;;;;5078544;28;20817;-67
2023/03/16 04:30:24;;;;;;;5.33;3.73;;;2.60;99.90;;;;;;5077873;28;20470;-66
2023/03/16 04:32:53;;;;;;;7.03;4.93;;;2.70;99.90;;;;;;5076727;28;20462;-67
2023/03/16 04:35:23;;;;;;;7.07;4.30;;;2.70;99.90;;;;;;5077548;28;20464;-67
2023/03/16 04:37:56;;;;;;;9.10;5.07;;;2.60;99.90;;;;;;5076763;28;20485;-67
2023/03/16 04:40:24;;;;;;;5.77;3.73;;;2.70;99.90;;;;;;5077481;28;20466;-65
2023/03/16 04:42:54;;;;;;;6.10;4.50;;;2.60;99.90;;;;;;5076875;28;20480;-67
2023/03/16 04:45:23;;;;;;;5.77;4.50;;;2.70;99.90;;;;;;5077440;28;20828;-66
2023/03/16 04:47:56;;;;;;;4.90;3.67;;;2.70;99.90;;;;;;5077581;28;20470;-68
2023/03/16 04:50:25;;;;;;;5.10;3.90;;;2.70;99.90;;;;;;5077259;28;20754;-66
2023/03/16 04:52:53;;;;;;;6.73;5.20;;;2.70;99.90;;;;;;5077330;28;20461;-67
2023/03/16 04:55:26;;;;;;;6.47;4.37;;;2.70;99.90;;;;;;5076543;28;20461;-66
2023/03/16 04:57:54;;;;;;;6.50;5.07;;;2.70;99.90;;;;;;5076454;28;20461;-68
2023/03/16 05:00:22;;;;;;;8.80;4.40;;;2.60;99.90;;;;;;5076658;28;20472;-66
2023/03/16 05:02:50;;;;;;;11.17;4.40;;;2.60;99.90;;;;;;5077053;28;20460;-65
2023/03/16 05:05:18;;;;;;;7.93;4.93;;;2.60;99.90;;;;;;5077602;28;20519;-66
2023/03/16 05:07:46;;;;;;;10.53;5.20;;;2.60;99.90;;;;;;5078028;28;20469;-66
2023/03/16 05:10:16;;;;;;;7.17;4.80;;;2.60;99.90;;;;;;5077597;28;20461;-65
2023/03/16 05:12:43;;;;;;;8.03;4.70;;;2.60;99.90;;;;;;5077671;28;20485;-65
2023/03/16 05:15:11;;;;;;;7.03;4.50;;;2.60;99.90;;;;;;5076405;28;20467;-65
2023/03/16 05:17:38;;;;;;;7.10;4.83;;;2.60;99.90;;;;;;5076953;28;20760;-66
2023/03/16 05:20:07;;;;;;;4.93;3.47;;;2.60;99.90;;;;;;5077296;28;20580;-66
2023/03/16 05:22:34;;;;;;;6.90;4.80;;;2.60;99.90;;;;;;5076993;28;20458;-66
2023/03/16 05:25:04;;;;;;;10.00;4.70;;;2.60;99.90;;;;;;5076506;28;20465;-66
2023/03/16 05:27:31;;;;;;;6.57;4.90;;;2.60;99.90;;;;;;5077417;28;20560;-67
2023/03/16 05:30:00;;;;;;;7.60;5.43;;;2.70;99.90;;;;;;5077476;28;20466;-67
2023/03/16 05:32:27;;;;;;;15.57;5.57;;;2.70;99.90;;;;;;5077859;28;20489;-67
2023/03/16 05:34:54;;;;;;;8.23;5.30;;;2.60;99.90;;;;;;5082887;28;20468;-66
2023/03/16 05:37:23;;;;;;;8.30;5.10;;;2.70;99.90;;;;;;5082465;28;20469;-66
2023/03/16 05:39:51;;;;;;;10.40;5.17;;;2.60;99.90;;;;;;5083555;28;20489;-66
2023/03/16 05:42:19;;;;;;;7.50;5.30;;;2.70;99.90;;;;;;5082692;28;20453;-67
2023/03/16 05:44:46;;;;;;;11.33;5.80;;;2.70;99.90;;;;;;5083503;28;20461;-67
2023/03/16 05:47:13;;;;;;;6.80;4.90;;;2.80;99.90;;;;;;5081932;28;20472;-66
2023/03/16 05:49:41;;;;;;;7.77;5.17;;;2.80;99.90;;;;;;5083129;28;20881;-67
2023/03/16 05:52:08;;;;;;;10.80;5.13;;;2.90;99.90;;;;;;5081371;28;20485;-66
2023/03/16 05:54:35;;;;;;;8.83;5.67;;;2.80;99.90;;;;;;5081007;28;20459;-66
2023/03/16 05:57:02;;;;;;;7.60;6.27;;;2.80;99.90;;;;;;5080866;28;20467;-66
2023/03/16 05:59:30;;;;;;;9.97;5.73;;;2.90;99.90;;;;;;5082771;28;20921;-66
2023/03/16 06:01:57;;;;;;;6.83;4.90;;;2.90;99.90;;;;;;5081889;28;20453;-66
2023/03/16 06:04:24;;;;;;;8.50;4.60;;;2.90;99.90;;;;;;5081456;28;20445;-66
2023/03/16 06:06:51;;;;;;;8.30;6.20;;;2.90;99.90;;;;;;5082087;28;20879;-66
2023/03/16 06:09:19;;;;;;;7.57;5.73;;;3.00;99.90;;;;;;5082450;28;20886;-65
2023/03/16 06:11:46;;;;;;;6.80;4.83;;;3.00;99.90;;;;;;5082294;28;20493;-66
2023/03/16 06:14:13;;;;;;;12.40;8.67;;;3.00;99.90;;;;;;5083398;28;20465;-66
2023/03/16 06:16:41;;;;;;;9.17;6.67;;;3.10;99.90;;;;;;5081410;28;20453;-66
2023/03/16 06:19:08;;;;;;;10.20;7.30;;;3.10;99.90;;;;;;5081859;28;20484;-66
2023/03/16 06:21:35;;;;;;;11.13;7.27;;;3.10;99.90;;;;;;5080414;28;20472;-69
2023/03/16 06:24:03;;;;;;;10.77;9.67;;;3.10;99.90;;;;;;5069749;28;20753;-67
2023/03/16 06:26:30;;;;;;;12.57;10.00;;;3.10;99.90;;;;;;5081452;28;20468;-66
2023/03/16 06:28:57;;;;;;;8.70;6.53;;;3.10;99.90;;;;;;5080914;28;20468;-67
2023/03/16 06:31:24;;;;;;;7.80;6.40;;;3.20;99.90;;;;;;5080121;28;20707;-67
2023/03/16 06:33:53;;;;;;;7.90;5.70;;;3.20;99.90;;;;;;5081632;28;20461;-67
2023/03/16 06:36:20;;;;;;;7.10;5.00;;;3.30;99.90;;;;;;5080905;28;20460;-67
2023/03/16 06:38:47;;;;;;;10.67;6.50;;;3.30;99.90;;;;;;5080152;28;20461;-66
2023/03/16 06:41:14;;;;;;;10.07;6.47;;;3.40;99.90;;;;;;5080806;28;20484;-66
2023/03/16 06:43:42;;;;;;;7.70;5.50;;;3.50;99.90;;;;;;5079204;28;20523;-65
2023/03/16 06:46:09;;;;;;;11.53;6.83;;;3.50;99.90;;;;;;5076135;28;20499;-65
2023/03/16 06:48:37;;;;;;;11.10;6.67;;;3.60;99.90;;;;;;5076653;28;20465;-65
2023/03/16 06:51:06;;;;;;;9.90;6.37;;;3.70;99.90;;;;;;5076424;28;20453;-65
2023/03/16 06:53:36;;;;;;;13.03;7.00;;;3.60;99.90;;;;;;5076988;28;20488;-65
2023/03/16 06:56:07;;;;;;;7.07;4.97;;;3.70;99.90;;;;;;5076688;28;20428;-66
2023/03/16 06:58:34;;;;;;;8.70;5.83;;;3.70;99.90;;;;;;5075147;28;20882;-65
2023/03/16 07:01:02;;;;;;;7.13;5.47;;;3.70;99.90;;;;;;5075549;28;20465;-65
2023/03/16 07:03:30;;;;;;;15.60;9.50;;;3.70;99.90;;;;;;5075389;28;20468;-65
2023/03/16 07:05:57;;;;;;;13.90;7.30;;;3.80;99.90;;;;;;5075031;28;20580;-66
2023/03/16 07:08:25;;;;;;;28.33;14.77;;;3.80;99.90;;;;;;5075490;28;20457;-66
2023/03/16 07:10:53;;;;;;;10.43;6.63;;;3.90;99.90;;;;;;5074777;28;20461;-65
2023/03/16 07:13:21;;;;;;;7.00;5.60;;;4.00;99.90;;;;;;5073116;28;20485;-66
2023/03/16 07:15:51;;;;;;;8.60;6.20;;;4.00;99.90;;;;;;5074918;28;20454;-67
2023/03/16 07:18:24;;;;;;;9.27;6.60;;;4.00;99.90;;;;;;5076835;28;20488;-65
2023/03/16 07:20:53;;;;;;;10.63;7.37;;;4.10;99.90;;;;;;5077514;28;20547;-65
2023/03/16 07:23:20;;;;;;;8.40;6.07;;;4.10;99.90;;;;;;5070469;28;20461;-65
2023/03/16 07:25:49;;;;;;;11.13;6.37;;;4.20;99.90;;;;;;5076967;28;20465;-65
2023/03/16 07:28:20;;;;;;;8.30;6.40;;;4.20;99.90;;;;;;5077218;28;20515;-66
2023/03/16 07:30:47;;;;;;;6.77;5.70;;;4.30;99.90;;;;;;5077291;28;20457;-65
2023/03/16 07:33:15;;;;;;;8.37;6.43;;;4.30;99.90;;;;;;5076396;28;20497;-65
2023/03/16 07:35:44;;;;;;;8.40;6.70;;;4.30;99.90;;;;;;5075571;28;20487;-65
2023/03/16 07:38:12;;;;;;;6.83;5.77;;;4.40;99.90;;;;;;5076369;28;20980;-65
2023/03/16 07:40:40;;;;;;;7.70;6.10;;;4.40;99.90;;;;;;5073390;28;20457;-65
2023/03/16 07:43:09;;;;;;;7.60;6.00;;;4.60;99.90;;;;;;5075380;28;20798;-65
2023/03/16 07:45:36;;;;;;;6.53;5.43;;;4.80;99.90;;;;;;5075665;28;20461;-66
2023/03/16 07:48:03;;;;;;;7.60;6.23;;;4.90;99.90;;;;;;5076373;28;20465;-65
2023/03/16 07:50:30;;;;;;;8.23;6.37;;;5.00;99.90;;;;;;5077310;28;20776;-65
2023/03/16 07:52:57;;;;;;;8.07;5.60;;;5.10;99.90;;;;;;5078104;28;20496;-65
2023/03/16 07:55:25;;;;;;;7.50;6.13;;;5.20;99.90;;;;;;5076987;28;20461;-65
2023/03/16 07:57:52;;;;;;;7.33;6.23;;;5.20;99.90;;;;;;5078881;28;20519;-65
2023/03/16 08:00:22;;;;;;;10.00;7.43;;;5.30;99.90;;;;;;5078697;28;20776;-66
2023/03/16 08:02:50;;;;;;;11.63;7.50;;;5.40;99.90;;;;;;5077179;28;20457;-69
2023/03/16 08:05:17;;;;;;;10.90;6.80;;;5.60;99.90;;;;;;5074574;28;20479;-66
2023/03/16 08:07:49;;;;;;;11.80;7.93;;;5.70;99.90;;;;;;5076769;28;20859;-65
2023/03/16 08:10:17;;;;;;;6.93;6.10;;;5.70;99.90;;;;;;5074806;28;20506;-65
2023/03/16 08:12:44;;;;;;;7.97;6.57;;;5.60;99.90;;;;;;5075113;28;20558;-67
2023/03/16 08:15:11;;;;;;;12.57;8.50;;;5.60;99.90;;;;;;5074811;28;20472;-66
2023/03/16 08:17:41;;;;;;;8.63;6.73;;;5.50;99.90;;;;;;5076584;28;20467;-65
2023/03/16 08:20:11;;;;;;;8.10;5.70;;;5.40;99.90;;;;;;5076272;28;20485;-66
2023/03/16 08:22:38;;;;;;;9.37;6.10;;;5.40;99.90;;;;;;5076812;28;20484;-67
2023/03/16 08:25:09;;;;;;;16.20;7.27;;;5.40;99.90;;;;;;5076750;28;20764;-65
2023/03/16 08:27:37;;;;;;;8.37;7.47;;;5.50;99.90;;;;;;5075870;28;20468;-65
2023/03/16 08:30:06;;;;;;;8.27;6.00;;;5.40;99.90;;;;;;5076689;28;20461;-65
2023/03/16 08:32:34;;;;;;;6.13;5.53;;;5.40;99.90;;;;;;5075779;28;20489;-65
2023/03/16 08:35:02;;;;;;;7.80;5.77;;;5.40;99.90;;;;;;5075899;28;20461;-66
2023/03/16 08:37:29;;;;;;;9.43;6.23;;;5.50;99.90;;;;;;5076309;28;20492;-64
2023/03/16 08:39:59;;;;;;;8.80;5.93;;;5.40;99.90;;;;;;5076245;28;20914;-64
2023/03/16 08:42:27;;;;;;;8.47;6.20;;;5.50;99.90;;;;;;5076561;28;20549;-64
2023/03/16 08:44:54;;;;;;;6.87;5.67;;;5.50;99.90;;;;;;5077436;28;20465;-65
2023/03/16 08:47:21;;;;;;;8.60;6.17;;;5.60;99.90;;;;;;5076514;28;20461;-65
2023/03/16 08:49:49;;;;;;;5.97;4.97;;;5.70;99.90;;;;;;5077407;28;20465;-64
2023/03/16 08:52:18;;;;;;;9.57;6.23;;;5.70;99.90;;;;;;5075313;28;20528;-62
2023/03/16 08:54:45;;;;;;;8.10;6.03;;;5.70;99.90;;;;;;5074276;28;20539;-62
2023/03/16 08:57:12;;;;;;;6.83;5.83;;;5.60;99.90;;;;;;5076211;28;20768;-62
2023/03/16 08:59:39;;;;;;;11.60;7.13;;;5.60;99.90;;;;;;5074884;28;20833;-62
2023/03/16 09:02:11;;;;;;;8.30;6.07;;;5.60;99.90;;;;;;5075663;28;20465;-62
2023/03/16 09:04:38;;;;;;;9.60;6.40;;;5.60;99.90;;;;;;5075340;28;20461;-62
2023/03/16 09:07:05;;;;;;;8.53;6.47;;;5.50;99.90;;;;;;5074513;28;20472;-62
2023/03/16 09:09:34;;;;;;;8.20;6.17;;;5.50;99.90;;;;;;5075705;28;20457;-62
2023/03/16 09:12:01;;;;;;;8.43;6.20;;;5.50;99.90;;;;;;5075614;28;20981;-62
2023/03/16 09:14:28;;;;;;;8.93;6.50;;;5.50;99.90;;;;;;5075148;28;20461;-61
2023/03/16 09:16:55;;;;;;;7.30;6.37;;;5.40;99.90;;;;;;5075339;28;20461;-63
2023/03/16 09:19:23;;;;;;;7.43;6.20;;;5.50;99.90;;;;;;5074651;28;20489;-62
2023/03/16 09:21:50;;;;;;;8.30;5.90;;;5.60;99.90;;;;;;5074303;28;20461;-62
2023/03/16 09:24:18;;;;;;;7.53;6.20;;;5.70;99.90;;;;;;5076593;28;20469;-62
2023/03/16 09:26:46;;;;;;;12.00;7.53;;;5.70;99.90;;;;;;5075384;28;20472;-62
2023/03/16 09:29:13;;;;;;;7.73;6.93;;;5.80;99.90;;;;;;5077032;28;20740;-63
2023/03/16 09:31:40;;;;;;;7.23;6.33;;;5.90;99.90;;;;;;5075793;28;20468;-62
2023/03/16 09:34:08;;;;;;;8.40;5.77;;;5.90;99.90;;;;;;5075840;28;20485;-62
2023/03/16 09:36:35;;;;;;;8.30;6.13;;;6.00;99.90;;;;;;5075262;28;20465;-62
2023/03/16 09:39:02;;;;;;;10.00;6.93;;;6.10;99.90;;;;;;5075921;28;20474;-62
2023/03/16 09:41:42;;;;;;;8.30;6.10;;;6.50;99.90;;;;;;5076951;28;20465;-62
2023/03/16 09:44:28;;;;;;;5.77;4.97;;;6.70;99.90;;;;;;5055768;28;20508;-63
2023/03/16 09:46:57;;;;;;;7.70;6.50;;;6.80;99.90;;;;;;5056130;28;20470;-62
2023/03/16 09:49:29;;;;;;;7.83;5.93;;;6.90;99.90;;;;;;5063287;28;20921;-62
2023/03/16 09:52:05;;;;;;;7.90;6.77;;;7.00;99.90;;;;;;5074331;28;20484;-62
2023/03/16 09:54:38;;;;;;;7.30;6.10;;;7.30;99.90;;;;;;5074229;28;20449;-63
2023/03/16 09:57:21;;;;;;;9.60;6.33;;;7.50;99.90;;;;;;5073583;28;20845;-62
2023/03/16 09:59:52;;;;;;;8.33;6.03;;;7.60;99.90;;;;;;5073781;28;20467;-62
2023/03/16 10:02:44;;;;;;;6.70;6.00;;;7.80;99.90;;;;;;5071719;28;20948;-63
2023/03/16 10:05:14;;;;;;;7.90;6.20;;;7.70;99.90;;;;;;5075958;28;20461;-63
2023/03/16 10:07:49;;;;;;;7.07;5.40;;;7.70;99.90;;;;;;5075734;28;20462;-62
2023/03/16 10:10:27;;;;;;;7.37;5.77;;;8.00;99.90;;;;;;5075664;28;20472;-62
2023/03/16 10:12:57;;;;;;;7.17;6.40;;;8.00;99.90;;;;;;5074145;28;20489;-63
2023/03/16 10:15:29;;;;;;;7.17;6.30;;;8.20;99.90;;;;;;5072707;28;20908;-62
2023/03/16 10:18:01;;;;;;;6.77;6.07;;;8.20;99.90;;;;;;5072082;28;20469;-63
2023/03/16 10:20:33;;;;;;;9.63;5.80;;;8.40;99.90;;;;;;5076791;28;20465;-63
2023/03/16 10:23:08;;;;;;;7.93;6.47;;;8.60;99.90;;;;;;5078734;28;20797;-62
2023/03/16 10:25:43;;;;;;;9.03;5.77;;;8.60;99.90;;;;;;5077380;28;20772;-62
2023/03/16 10:28:13;;;;;;;8.30;6.27;;;9.00;99.90;;;;;;5075782;28;20463;-62
2023/03/16 10:30:42;;;;;;;7.20;5.87;;;9.10;99.90;;;;;;5076848;28;20457;-63
2023/03/16 10:33:20;;;;;;;8.03;5.20;;;9.00;99.90;;;;;;5076654;28;20493;-60
2023/03/16 10:35:51;;;;;;;5.97;5.33;;;8.90;99.90;;;;;;5074989;28;20460;-62
2023/03/16 10:38:31;;;;;;;6.30;5.13;;;8.60;99.90;;;;;;5077295;28;20454;-62
2023/03/16 10:41:00;;;;;;;6.00;5.40;;;8.70;99.90;;;;;;5077880;28;20552;-61
2023/03/16 10:43:28;;;;;;;7.70;4.80;;;8.60;99.90;;;;;;5077505;28;20468;-62
2023/03/16 10:46:02;;;;;;;6.60;4.70;;;8.60;99.90;;;;;;5076995;28;20464;-61
2023/03/16 10:48:33;;;;;;;6.87;5.07;;;8.60;99.90;;;;;;5075079;28;20546;-62
2023/03/16 10:51:04;;;;;;;4.43;3.90;;;8.50;99.90;;;;;;5076180;28;20777;-62
2023/03/16 10:53:34;;;;;;;5.00;4.37;;;8.30;99.90;;;;;;5076077;28;20496;-62
2023/03/16 10:56:10;;;;;;;6.17;4.60;;;8.40;99.90;;;;;;5073078;28;20457;-62
2023/03/16 10:58:42;;;;;;;5.27;4.60;;;8.50;99.90;;;;;;5075855;28;20493;-62
2023/03/16 11:01:17;;;;;;;5.30;4.50;;;8.40;99.90;;;;;;5076699;28;20507;-63
2023/03/16 11:03:50;;;;;;;8.00;4.67;;;8.40;99.90;;;;;;5073505;28;20929;-62
2023/03/16 11:06:23;;;;;;;6.03;4.90;;;8.40;99.90;;;;;;5076129;28;20519;-62
2023/03/16 11:08:52;;;;;;;5.87;4.20;;;8.30;99.90;;;;;;5075626;28;20860;-62
2023/03/16 11:11:27;;;;;;;6.50;4.47;;;8.40;99.90;;;;;;5076351;28;20484;-62
2023/03/16 11:13:58;;;;;;;4.77;4.37;;;8.70;99.90;;;;;;5075509;28;20487;-62
2023/03/16 11:16:34;;;;;;;6.27;4.20;;;8.80;99.90;;;;;;5073512;28;20465;-62
2023/03/16 11:19:10;;;;;;;8.33;4.80;;;8.80;99.90;;;;;;5076141;28;20929;-62
2023/03/16 11:21:48;;;;;;;4.23;3.83;;;9.10;99.90;;;;;;5077918;28;20806;-63
2023/03/16 11:24:21;;;;;;;6.33;4.10;;;9.40;99.90;;;;;;5077483;28;20453;-62
2023/03/16 11:26:54;;;;;;;4.73;4.07;;;9.50;99.90;;;;;;5075899;28;20466;-62
2023/03/16 11:29:27;;;;;;;4.93;3.73;;;9.60;99.90;;;;;;5057544;28;20458;-61
2023/03/16 11:32:00;;;;;;;4.83;4.20;;;9.60;99.90;;;;;;5056921;28;20594;-62
2023/03/16 11:34:29;;;;;;;5.07;4.57;;;9.50;99.90;;;;;;5059928;28;20493;-62
2023/03/16 11:37:03;;;;;;;5.00;4.33;;;9.70;99.90;;;;;;5075273;28;20473;-62
2023/03/16 11:39:39;;;;;;;5.20;3.67;;;10.10;99.90;;;;;;5077446;28;20496;-61
2023/03/16 11:42:21;;;;;;;6.53;5.23;;;10.40;99.90;;;;;;5078661;28;20472;-62
2023/03/16 11:44:58;;;;;;;4.83;4.03;;;11.10;99.90;;;;;;5076896;28;20465;-62
2023/03/16 11:47:49;;;;;;;8.03;4.10;;;11.60;99.90;;;;;;5078915;28;20748;-62
2023/03/16 11:50:20;;;;;;;4.50;4.10;;;12.10;99.90;;;;;;5074847;28;20511;-62
2023/03/16 11:52:56;;;;;;;5.27;3.53;;;12.20;99.90;;;;;;5077743;28;20518;-63
2023/03/16 11:55:37;;;;;;;5.83;3.87;;;12.10;99.90;;;;;;5075592;28;20575;-63
2023/03/16 11:58:18;;;;;;;5.60;4.90;;;11.90;99.90;;;;;;5077385;28;20461;-63
2023/03/16 12:00:54;;;;;;;5.90;3.63;;;11.70;99.90;;;;;;5077422;28;20564;-62
2023/03/16 12:04:02;;;;;;;4.57;3.97;;;12.50;99.90;;;;;;5077157;28;20457;-63
2023/03/16 12:06:44;;;;;;;5.03;3.93;;;13.00;99.90;;;;;;5065697;28;20532;-63
2023/03/16 12:09:53;;;;;;;4.07;3.67;;;13.00;99.90;;;;;;5072337;28;20480;-62
2023/03/16 12:12:34;;;;;;;5.60;3.80;;;12.80;99.90;;;;;;5064664;28;20500;-62
2023/03/16 12:15:28;;;;;;;6.37;4.30;;;12.80;99.90;;;;;;5075862;28;20498;-63
2023/03/16 12:18:01;;;;;;;5.43;3.30;;;13.00;99.90;;;;;;5070244;28;20769;-64
2023/03/16 12:20:34;;;;;;;4.23;3.83;;;13.00;99.90;;;;;;5074340;28;20497;-63
2023/03/16 12:23:08;;;;;;;4.83;3.90;;;13.30;99.90;;;;;;5071877;28;20461;-62
2023/03/16 12:25:39;;;;;;;4.50;3.97;;;13.20;99.90;;;;;;5076027;28;20467;-62
2023/03/16 12:28:22;;;;;;;3.83;3.50;;;13.10;99.90;;;;;;5074369;28;20454;-62
2023/03/16 12:30:58;;;;;;;6.30;3.77;;;12.60;99.90;;;;;;5074039;28;20515;-63
2023/03/16 12:33:39;;;;;;;6.03;4.93;;;12.60;99.90;;;;;;5073764;28;20480;-62
2023/03/16 12:36:45;;;;;;;5.90;3.50;;;12.10;99.90;;;;;;5072426;28;20519;-62
2023/03/16 12:39:20;;;;;;;3.70;2.80;;;12.00;99.90;;;;;;4992897;28;20468;-61
2023/03/16 12:41:59;;;;;;;4.43;3.67;;;11.80;99.90;;;;;;5058198;28;20461;-64
2023/03/16 12:44:36;;;;;;;9.20;6.80;;;11.60;99.90;;;;;;5076097;28;20552;-62
2023/03/16 12:47:12;;;;;;;7.47;3.90;;;11.40;99.90;;;;;;5075335;28;20457;-62
2023/03/16 12:49:40;;;;;;;6.30;4.23;;;11.20;99.90;;;;;;5075636;28;20472;-62
2023/03/16 12:52:11;;;;;;;4.77;3.30;;;11.30;99.90;;;;;;5073257;28;20972;-61
2023/03/16 12:54:50;;;;;;;6.20;3.90;;;11.40;99.90;;;;;;5073381;28;20542;-62
2023/03/16 12:57:18;;;;;;;5.03;3.13;;;11.30;99.90;;;;;;5071874;28;20541;-62
2023/03/16 12:59:49;;;;;;;5.23;3.40;;;11.00;99.90;;;;;;5073935;28;20465;-62
2023/03/16 13:02:19;;;;;;;4.87;3.50;;;10.80;99.90;;;;;;5073489;28;20465;-62
2023/03/16 13:04:50;;;;;;;3.70;3.30;;;10.80;99.90;;;;;;5073733;28;20520;-63
2023/03/16 13:07:22;;;;;;;3.40;3.10;;;10.70;99.90;;;;;;5074700;28;20453;-63
2023/03/16 13:09:53;;;;;;;4.27;3.87;;;10.60;99.90;;;;;;5074513;28;20486;-61
2023/03/16 13:12:26;;;;;;;6.50;3.70;;;10.60;99.90;;;;;;5072329;28;20530;-63